Time;durP1;ratioP1;P1;durP2;ratioP2;P2;SDS_P1;SDS_P2;PMS_P1;PMS_P2;Temp;Humidity;BMP_temperature;BMP_pressure;BME280_temperature;BME280_humidity;BME280_pressure;Samples;Min_cycle;Max_cycle;Signal;HPM_P1;HPM_P2
2023/09/20 00:02:18;;;;;;;48.58;36.55;;;23.10;99.90;;;;;;5061728;28;20051;-67
2023/09/20 00:04:45;;;;;;;46.60;36.33;;;23.30;99.90;;;;;;5063958;28;20399;-67
2023/09/20 00:07:11;;;;;;;48.50;36.92;;;23.30;99.90;;;;;;5063566;28;20056;-67
2023/09/20 00:09:38;;;;;;;50.53;37.20;;;23.00;99.90;;;;;;5061381;28;20067;-66
2023/09/20 00:12:04;;;;;;;46.15;36.38;;;23.30;99.90;;;;;;5057798;28;20493;-67
2023/09/20 00:14:29;;;;;;;48.72;35.28;;;23.30;99.90;;;;;;5065395;28;20036;-67
2023/09/20 00:16:55;;;;;;;46.75;33.78;;;22.80;99.90;;;;;;5057637;28;20466;-66
2023/09/20 00:19:21;;;;;;;45.05;33.70;;;23.10;99.90;;;;;;5060842;28;20067;-66
2023/09/20 00:21:47;;;;;;;44.80;33.38;;;23.30;99.90;;;;;;5057107;28;20037;-66
2023/09/20 00:24:12;;;;;;;45.28;33.80;;;23.10;99.90;;;;;;5062326;28;20079;-66
2023/09/20 00:26:38;;;;;;;48.50;34.60;;;23.00;99.90;;;;;;5064397;28;20110;-67
2023/09/20 00:29:05;;;;;;;44.85;34.13;;;23.10;99.90;;;;;;5063271;28;20064;-67
2023/09/20 00:31:32;;;;;;;49.35;34.45;;;23.00;99.90;;;;;;5059963;28;20159;-66
2023/09/20 00:33:58;;;;;;;48.05;34.80;;;23.10;99.90;;;;;;5061234;28;20056;-66
2023/09/20 00:36:24;;;;;;;48.13;34.05;;;22.60;99.90;;;;;;5059895;28;20102;-66
2023/09/20 00:38:52;;;;;;;47.08;35.40;;;23.10;99.90;;;;;;5057155;28;20041;-66
2023/09/20 00:41:18;;;;;;;46.00;34.67;;;22.70;99.90;;;;;;5061563;28;20090;-66
2023/09/20 00:43:44;;;;;;;41.53;34.70;;;23.10;99.90;;;;;;5055885;28;20071;-66
2023/09/20 00:46:11;;;;;;;47.67;35.88;;;23.10;99.90;;;;;;5061502;28;20117;-66
2023/09/20 00:48:38;;;;;;;54.78;37.10;;;22.80;99.90;;;;;;5058732;28;20591;-67
2023/09/20 00:51:05;;;;;;;49.40;36.40;;;22.60;99.90;;;;;;5060259;28;20091;-67
2023/09/20 00:53:32;;;;;;;44.55;38.00;;;23.80;99.90;;;;;;5061966;28;20053;-67
2023/09/20 00:55:58;;;;;;;49.10;36.47;;;23.20;99.90;;;;;;5060312;28;20037;-67
2023/09/20 00:58:25;;;;;;;53.47;38.63;;;22.60;99.90;;;;;;5059660;28;20098;-66
2023/09/20 01:00:54;;;;;;;50.47;37.28;;;22.70;99.90;;;;;;5054345;28;20548;-67
2023/09/20 01:03:20;;;;;;;46.90;36.28;;;23.20;99.90;;;;;;5060457;28;20413;-67
2023/09/20 01:05:47;;;;;;;47.85;36.65;;;23.00;99.90;;;;;;5056965;28;20041;-67
2023/09/20 01:08:14;;;;;;;47.13;35.83;;;23.30;99.90;;;;;;5059935;28;20128;-66
2023/09/20 01:10:40;;;;;;;46.97;37.45;;;23.30;99.90;;;;;;5059868;28;20037;-67
2023/09/20 01:13:09;;;;;;;52.38;38.92;;;22.80;99.90;;;;;;5060809;28;20111;-67
2023/09/20 01:15:36;;;;;;;49.30;37.03;;;22.70;99.90;;;;;;5062280;28;20041;-66
2023/09/20 01:18:04;;;;;;;47.75;40.20;;;22.60;99.90;;;;;;5067755;28;20125;-67
2023/09/20 01:20:34;;;;;;;51.08;39.90;;;22.50;99.90;;;;;;5054901;28;20536;-66
2023/09/20 01:23:00;;;;;;;42.70;35.38;;;22.60;99.90;;;;;;5058907;28;20048;-67
2023/09/20 01:25:29;;;;;;;36.75;30.52;;;23.20;99.90;;;;;;5060018;28;20481;-66
2023/09/20 01:27:57;;;;;;;35.22;30.30;;;22.80;99.90;;;;;;5060631;28;20040;-66
2023/09/20 01:30:27;;;;;;;41.75;31.65;;;23.10;99.90;;;;;;5059957;28;20072;-66
2023/09/20 01:32:54;;;;;;;43.22;33.67;;;22.70;99.90;;;;;;5063293;28;20044;-67
2023/09/20 01:35:20;;;;;;;42.42;33.97;;;23.20;99.90;;;;;;5060741;28;20051;-63
2023/09/20 01:37:46;;;;;;;38.05;33.53;;;23.00;99.90;;;;;;5060757;28;20029;-62
2023/09/20 01:40:15;;;;;;;47.92;33.20;;;22.80;99.90;;;;;;5057076;28;20045;-63
2023/09/20 01:42:43;;;;;;;41.72;32.92;;;23.20;99.90;;;;;;5062286;28;20106;-62
2023/09/20 01:45:22;;;;;;;43.78;34.90;;;23.20;99.90;;;;;;5058746;28;20055;-63
2023/09/20 01:48:00;;;;;;;48.63;36.17;;;22.90;99.90;;;;;;5060939;28;20052;-62
2023/09/20 01:50:26;;;;;;;45.60;33.90;;;22.80;99.90;;;;;;5058719;28;20149;-63
2023/09/20 01:52:56;;;;;;;45.50;37.60;;;23.20;99.90;;;;;;5062223;28;20501;-62
2023/09/20 01:55:24;;;;;;;47.90;37.67;;;23.20;99.90;;;;;;5058931;28;20083;-62
2023/09/20 01:57:52;;;;;;;46.97;35.80;;;23.00;99.90;;;;;;5062471;28;20419;-61
2023/09/20 02:00:22;;;;;;;50.90;36.53;;;22.80;99.90;;;;;;5056682;28;20037;-63
2023/09/20 02:02:55;;;;;;;45.70;36.10;;;22.90;99.90;;;;;;5056960;28;20062;-63
2023/09/20 02:05:23;;;;;;;46.88;36.22;;;22.80;99.90;;;;;;5060673;28;20048;-62
2023/09/20 02:07:50;;;;;;;41.50;34.83;;;22.80;99.90;;;;;;5057268;28;20048;-63
2023/09/20 02:10:16;;;;;;;43.17;35.95;;;23.00;99.90;;;;;;5060838;28;20044;-62
2023/09/20 02:12:56;;;;;;;51.50;35.88;;;22.80;99.90;;;;;;5055789;28;20406;-62
2023/09/20 02:15:34;;;;;;;45.53;34.08;;;22.90;99.90;;;;;;5054471;28;20041;-62
2023/09/20 02:18:01;;;;;;;44.25;33.78;;;23.10;99.90;;;;;;5054897;28;20498;-62
2023/09/20 02:20:27;;;;;;;44.63;32.95;;;22.90;99.90;;;;;;5058792;28;20131;-62
2023/09/20 02:22:54;;;;;;;44.65;33.15;;;23.10;99.90;;;;;;5055674;28;20076;-62
2023/09/20 02:25:20;;;;;;;47.72;31.80;;;23.60;99.90;;;;;;5057223;28;20547;-63
2023/09/20 02:27:51;;;;;;;33.78;29.95;;;22.80;99.90;;;;;;5056794;28;20478;-63
2023/09/20 02:30:24;;;;;;;44.72;32.65;;;23.00;99.90;;;;;;5061200;28;20049;-63
2023/09/20 02:32:57;;;;;;;35.33;29.27;;;22.80;99.90;;;;;;5060485;28;20040;-64
2023/09/20 02:35:24;;;;;;;38.83;30.92;;;23.10;99.90;;;;;;5058929;28;20515;-64
2023/09/20 02:37:51;;;;;;;45.05;33.03;;;23.00;99.90;;;;;;5056305;28;20476;-64
2023/09/20 02:40:20;;;;;;;46.80;32.05;;;23.20;99.90;;;;;;5058677;28;20124;-62
2023/09/20 02:42:53;;;;;;;43.80;31.67;;;23.40;99.90;;;;;;5058144;28;20461;-62
2023/09/20 02:45:19;;;;;;;44.33;33.60;;;23.10;99.90;;;;;;5056804;28;20410;-66
2023/09/20 02:47:46;;;;;;;39.40;32.95;;;22.80;99.90;;;;;;5060127;28;20041;-66
2023/09/20 02:50:14;;;;;;;44.03;32.50;;;23.00;99.90;;;;;;5057357;28;20052;-68
2023/09/20 02:52:47;;;;;;;33.90;30.20;;;23.10;99.90;;;;;;5058001;28;20125;-66
2023/09/20 02:55:17;;;;;;;39.85;31.27;;;22.90;99.90;;;;;;5058488;28;20163;-66
2023/09/20 02:57:44;;;;;;;41.50;33.70;;;23.00;99.90;;;;;;5055355;28;20044;-67
2023/09/20 03:00:15;;;;;;;41.70;31.17;;;23.30;99.90;;;;;;5062127;28;20111;-66
2023/09/20 03:02:52;;;;;;;40.88;32.15;;;23.00;99.90;;;;;;5058332;28;20053;-66
2023/09/20 03:05:26;;;;;;;40.13;30.85;;;23.40;99.90;;;;;;5063148;28;20117;-68
2023/09/20 03:07:53;;;;;;;38.53;29.95;;;23.10;99.90;;;;;;5063964;28;20055;-67
2023/09/20 03:10:21;;;;;;;46.72;32.15;;;23.10;99.90;;;;;;5060698;28;20315;-67
2023/09/20 03:12:48;;;;;;;39.85;31.55;;;23.30;99.90;;;;;;5059282;28;20518;-67
2023/09/20 03:15:21;;;;;;;45.92;33.58;;;23.00;99.90;;;;;;5060729;28;20044;-66
2023/09/20 03:17:52;;;;;;;35.72;31.90;;;22.90;99.90;;;;;;5057997;28;20049;-67
2023/09/20 03:20:25;;;;;;;36.28;29.40;;;22.90;99.90;;;;;;5060695;28;20044;-66
2023/09/20 03:22:55;;;;;;;36.00;29.30;;;23.30;99.90;;;;;;5061327;28;20051;-66
2023/09/20 03:25:22;;;;;;;36.95;30.70;;;23.30;99.90;;;;;;5059754;28;20076;-66
2023/09/20 03:27:48;;;;;;;42.45;30.73;;;23.30;99.90;;;;;;5060009;28;20446;-66
2023/09/20 03:30:20;;;;;;;33.28;29.77;;;23.20;99.90;;;;;;5060692;28;20040;-67
2023/09/20 03:32:46;;;;;;;32.60;28.67;;;23.30;99.90;;;;;;5061658;28;20049;-66
2023/09/20 03:35:14;;;;;;;37.22;29.90;;;23.10;99.90;;;;;;5061263;28;20040;-67
2023/09/20 03:37:41;;;;;;;40.13;31.65;;;23.30;99.90;;;;;;5060675;28;20043;-67
2023/09/20 03:40:10;;;;;;;34.75;29.38;;;23.50;99.90;;;;;;5062362;28;20413;-67
2023/09/20 03:42:40;;;;;;;34.28;30.23;;;23.30;99.90;;;;;;5060347;28;20048;-66
2023/09/20 03:45:07;;;;;;;43.53;31.40;;;23.40;99.90;;;;;;5065162;28;20048;-67
2023/09/20 03:47:33;;;;;;;41.50;32.50;;;23.40;99.90;;;;;;5064073;28;20048;-67
2023/09/20 03:49:58;;;;;;;40.50;32.08;;;23.30;99.90;;;;;;5057086;28;20052;-66
2023/09/20 03:52:24;;;;;;;41.10;33.97;;;23.20;99.90;;;;;;5059261;28;20410;-66
2023/09/20 03:54:53;;;;;;;38.30;34.22;;;23.20;99.90;;;;;;5060767;28;20040;-62
2023/09/20 03:57:24;;;;;;;37.92;33.80;;;23.30;99.90;;;;;;5064118;28;20036;-63
2023/09/20 03:59:53;;;;;;;40.03;35.50;;;22.90;99.90;;;;;;5058708;28;20151;-62
2023/09/20 04:02:19;;;;;;;43.08;36.20;;;22.90;99.90;;;;;;5061325;28;20044;-62
2023/09/20 04:04:45;;;;;;;43.40;36.30;;;22.80;99.90;;;;;;5067835;28;20040;-63
2023/09/20 04:07:11;;;;;;;41.47;35.70;;;22.30;99.90;;;;;;5057467;28;20357;-63
2023/09/20 04:09:36;;;;;;;40.30;35.65;;;22.10;99.90;;;;;;5064565;28;20056;-62
2023/09/20 04:12:05;;;;;;;41.85;34.13;;;22.70;99.90;;;;;;5057892;28;20667;-63
2023/09/20 04:14:31;;;;;;;39.50;35.33;;;22.50;99.90;;;;;;5063364;28;20047;-62
2023/09/20 04:16:57;;;;;;;41.85;37.53;;;21.90;99.90;;;;;;5060299;28;20398;-61
2023/09/20 04:19:22;;;;;;;41.50;37.25;;;22.00;99.90;;;;;;5062346;28;20175;-62
2023/09/20 04:21:48;;;;;;;42.72;35.53;;;22.50;99.90;;;;;;5059864;28;20036;-63
2023/09/20 04:24:16;;;;;;;43.42;36.92;;;22.40;99.90;;;;;;5056600;28;20051;-65
2023/09/20 04:26:41;;;;;;;42.92;36.15;;;22.50;99.90;;;;;;5064376;28;20043;-62
2023/09/20 04:29:07;;;;;;;39.42;35.35;;;22.40;99.90;;;;;;5059841;28;20044;-63
2023/09/20 04:31:33;;;;;;;42.75;36.53;;;21.80;99.90;;;;;;5059412;28;20048;-62
2023/09/20 04:33:59;;;;;;;37.85;33.92;;;22.00;99.90;;;;;;5059893;28;20407;-62
2023/09/20 04:36:27;;;;;;;39.65;35.85;;;22.20;99.90;;;;;;5058664;28;20045;-62
2023/09/20 04:38:52;;;;;;;39.50;35.28;;;21.90;99.90;;;;;;5061969;28;20167;-62
2023/09/20 04:41:18;;;;;;;40.65;36.35;;;22.20;99.90;;;;;;5060768;28;20505;-63
2023/09/20 04:43:43;;;;;;;40.28;36.22;;;22.20;99.90;;;;;;5063783;28;20593;-62
2023/09/20 04:46:10;;;;;;;41.60;36.90;;;22.10;99.90;;;;;;5064074;28;20044;-62
2023/09/20 04:48:38;;;;;;;43.70;37.00;;;21.60;99.90;;;;;;5058172;28;20071;-62
2023/09/20 04:51:04;;;;;;;42.55;38.05;;;21.90;99.90;;;;;;5060046;28;20052;-62
2023/09/20 04:53:29;;;;;;;41.88;37.22;;;21.90;99.90;;;;;;5058069;28;20040;-62
2023/09/20 04:55:56;;;;;;;41.53;37.08;;;22.10;99.90;;;;;;5059248;28;20119;-62
2023/09/20 04:58:21;;;;;;;41.75;37.20;;;21.50;99.90;;;;;;5061241;28;20490;-62
2023/09/20 05:00:48;;;;;;;42.38;38.00;;;22.20;99.90;;;;;;5063985;28;20042;-65
2023/09/20 05:03:15;;;;;;;42.38;37.58;;;22.30;99.90;;;;;;5063564;28;20170;-62
2023/09/20 05:05:43;;;;;;;42.85;38.53;;;22.30;99.90;;;;;;5060617;28;20499;-63
2023/09/20 05:08:09;;;;;;;45.05;40.17;;;22.20;99.90;;;;;;5062960;28;20055;-63
2023/09/20 05:10:34;;;;;;;41.78;37.28;;;21.60;99.90;;;;;;5057072;28;20044;-63
2023/09/20 05:13:00;;;;;;;43.65;38.90;;;21.50;99.90;;;;;;5060360;28;20502;-63
2023/09/20 05:15:26;;;;;;;42.88;38.33;;;22.10;99.90;;;;;;5058267;28;20149;-63
2023/09/20 05:17:52;;;;;;;43.25;38.72;;;22.30;99.90;;;;;;5056515;28;20174;-63
2023/09/20 05:20:17;;;;;;;42.90;38.30;;;21.90;99.90;;;;;;5063538;28;20051;-63
2023/09/20 05:22:43;;;;;;;42.97;38.35;;;22.30;99.90;;;;;;5055843;28;20052;-63
2023/09/20 05:25:09;;;;;;;44.55;37.92;;;22.00;99.90;;;;;;5062145;28;20048;-63
2023/09/20 05:27:36;;;;;;;44.55;38.85;;;22.30;99.90;;;;;;5060958;28;20442;-64
2023/09/20 05:30:01;;;;;;;45.00;39.33;;;21.70;99.90;;;;;;5055733;28;20785;-63
2023/09/20 05:32:27;;;;;;;43.58;37.33;;;22.00;99.90;;;;;;5063812;28;20045;-63
2023/09/20 05:34:53;;;;;;;39.67;35.78;;;22.40;99.90;;;;;;5062160;28;20477;-62
2023/09/20 05:37:18;;;;;;;41.67;37.17;;;22.00;99.90;;;;;;5059389;28;20051;-62
2023/09/20 05:39:47;;;;;;;46.70;36.90;;;21.80;99.90;;;;;;5057422;28;20098;-62
2023/09/20 05:42:14;;;;;;;39.75;35.35;;;21.80;99.90;;;;;;5058776;28;20111;-63
2023/09/20 05:44:40;;;;;;;37.38;33.38;;;21.80;99.90;;;;;;5060987;28;20107;-62
2023/09/20 05:47:08;;;;;;;38.72;34.80;;;21.90;99.90;;;;;;5040116;28;20190;-63
2023/09/20 05:49:34;;;;;;;41.17;34.78;;;21.80;99.90;;;;;;5058983;28;20052;-62
2023/09/20 05:52:02;;;;;;;40.85;36.42;;;22.40;99.90;;;;;;5061760;28;20716;-63
2023/09/20 05:54:28;;;;;;;41.40;37.15;;;21.90;99.90;;;;;;5059240;28;20044;-63
2023/09/20 05:56:54;;;;;;;43.20;36.90;;;22.40;99.90;;;;;;5058345;28;20136;-62
2023/09/20 05:59:20;;;;;;;38.28;34.20;;;21.90;99.90;;;;;;5063261;28;20604;-63
2023/09/20 06:01:45;;;;;;;46.47;35.65;;;21.80;99.90;;;;;;5055732;28;20049;-62
2023/09/20 06:04:11;;;;;;;43.83;34.60;;;22.20;99.90;;;;;;5059177;28;20036;-62
2023/09/20 06:06:40;;;;;;;38.03;34.03;;;22.40;99.90;;;;;;5057105;28;20057;-62
2023/09/20 06:09:06;;;;;;;39.33;34.40;;;22.30;99.90;;;;;;5059845;28;20119;-63
2023/09/20 06:11:32;;;;;;;38.58;33.83;;;22.40;99.90;;;;;;5057528;28;20135;-63
2023/09/20 06:13:57;;;;;;;42.38;34.08;;;22.10;99.90;;;;;;5060100;28;20036;-65
2023/09/20 06:16:23;;;;;;;37.78;33.53;;;22.40;99.90;;;;;;5058831;28;20588;-66
2023/09/20 06:18:49;;;;;;;39.30;33.88;;;22.50;99.90;;;;;;5059054;28;20044;-66
2023/09/20 06:21:17;;;;;;;41.72;34.72;;;22.00;99.90;;;;;;5059345;28;20049;-66
2023/09/20 06:23:44;;;;;;;42.85;35.85;;;22.20;99.90;;;;;;5061583;28;20048;-66
2023/09/20 06:26:11;;;;;;;46.50;36.58;;;22.10;99.90;;;;;;5058352;28;20521;-68
2023/09/20 06:28:36;;;;;;;39.22;35.08;;;22.40;99.90;;;;;;5057138;28;20055;-67
2023/09/20 06:31:03;;;;;;;41.13;36.33;;;22.70;99.90;;;;;;5061143;28;20128;-65
2023/09/20 06:33:29;;;;;;;40.85;36.30;;;22.50;99.90;;;;;;5056343;28;20052;-67
2023/09/20 06:35:55;;;;;;;38.70;34.50;;;22.10;99.90;;;;;;5057599;28;20044;-66
2023/09/20 06:38:23;;;;;;;38.80;34.30;;;22.10;99.90;;;;;;5061291;28;20063;-65
2023/09/20 06:40:53;;;;;;;41.75;37.17;;;22.10;99.90;;;;;;5061401;28;20119;-65
2023/09/20 06:43:19;;;;;;;36.38;32.45;;;22.50;99.90;;;;;;5063006;28;20068;-66
2023/09/20 06:45:50;;;;;;;39.53;34.53;;;22.10;99.90;;;;;;5067136;28;20051;-65
2023/09/20 06:48:22;;;;;;;40.58;36.03;;;22.10;99.90;;;;;;5064930;28;20084;-65
2023/09/20 06:50:52;;;;;;;38.70;34.60;;;22.40;99.90;;;;;;5063173;28;20518;-66
2023/09/20 06:53:18;;;;;;;41.90;35.40;;;22.90;99.90;;;;;;5059404;28;20051;-66
2023/09/20 06:55:46;;;;;;;41.78;34.65;;;22.70;99.90;;;;;;5064505;28;20098;-65
2023/09/20 06:58:13;;;;;;;35.25;31.73;;;22.80;99.90;;;;;;5064093;28;20117;-67
2023/09/20 07:00:39;;;;;;;36.25;32.20;;;22.80;99.90;;;;;;5063620;28;20121;-66
2023/09/20 07:03:05;;;;;;;36.47;32.53;;;24.20;99.90;;;;;;5061207;28;20052;-65
2023/09/20 07:05:31;;;;;;;35.08;31.42;;;22.60;99.90;;;;;;5063223;28;20048;-64
2023/09/20 07:08:00;;;;;;;36.50;32.63;;;22.40;99.90;;;;;;5060510;28;20044;-65
2023/09/20 07:10:29;;;;;;;34.13;30.50;;;22.60;99.90;;;;;;5058763;28;20816;-64
2023/09/20 07:12:55;;;;;;;34.88;31.20;;;22.70;99.90;;;;;;5065124;28;20041;-66
2023/09/20 07:15:25;;;;;;;34.33;30.63;;;22.60;99.90;;;;;;5066504;28;20032;-66
2023/09/20 07:18:00;;;;;;;33.97;30.67;;;22.40;99.90;;;;;;5064666;28;20087;-66
2023/09/20 07:20:26;;;;;;;;;;;22.60;99.90;;;;;;5063321;28;20184;-65
2023/09/20 07:22:53;;;;;;;33.72;30.35;;;22.70;99.90;;;;;;5059720;28;20011;-65
2023/09/20 07:25:22;;;;;;;36.10;32.28;;;22.40;99.90;;;;;;5066221;28;20514;-64
2023/09/20 07:27:49;;;;;;;34.95;31.25;;;22.80;99.90;;;;;;5058708;28;20052;-64
2023/09/20 07:30:20;;;;;;;33.08;29.67;;;22.40;99.90;;;;;;5063980;28;20098;-63
2023/09/20 07:32:50;;;;;;;32.67;29.17;;;22.50;99.90;;;;;;5065152;28;20040;-63
2023/09/20 07:38:03;;;;;;;35.47;31.67;;;22.60;99.90;;;;;;5061493;28;20048;-63
2023/09/20 07:40:30;;;;;;;34.10;30.67;;;22.80;99.90;;;;;;5061076;28;20032;-64
2023/09/20 07:42:59;;;;;;;34.13;30.83;;;22.80;99.90;;;;;;5062120;28;20045;-64
2023/09/20 07:45:38;;;;;;;32.55;29.45;;;22.40;99.90;;;;;;5065128;28;20040;-64
2023/09/20 07:48:21;;;;;;;32.53;29.45;;;22.40;99.90;;;;;;5056206;28;20402;-63
2023/09/20 07:50:50;;;;;;;33.53;30.08;;;22.80;99.90;;;;;;5065960;28;20141;-64
2023/09/20 07:53:18;;;;;;;34.92;31.45;;;22.70;99.90;;;;;;5065187;28;20052;-64
2023/09/20 07:56:05;;;;;;;35.72;31.77;;;22.50;99.90;;;;;;5061699;28;20403;-63
2023/09/20 07:58:32;;;;;;;34.83;31.42;;;22.70;99.90;;;;;;5061054;28;20109;-70
2023/09/20 08:00:59;;;;;;;37.85;32.92;;;22.70;99.90;;;;;;5060225;28;20163;-63
2023/09/20 08:03:25;;;;;;;35.13;31.33;;;22.40;99.90;;;;;;5068084;28;20042;-64
2023/09/20 08:05:52;;;;;;;33.35;29.38;;;22.40;99.90;;;;;;5068098;28;20108;-64
2023/09/20 08:08:18;;;;;;;31.05;28.02;;;23.40;99.90;;;;;;5065145;28;20059;-63
2023/09/20 08:10:44;;;;;;;33.10;29.60;;;23.00;99.90;;;;;;5066990;28;20054;-64
2023/09/20 08:13:11;;;;;;;27.95;25.23;;;23.50;99.90;;;;;;5056068;28;20433;-63
2023/09/20 08:15:43;;;;;;;28.48;25.83;;;23.70;99.90;;;;;;5067719;28;20059;-64
2023/09/20 08:20:57;;;;;;;28.08;25.10;;;23.50;99.90;;;;;;5067111;28;20040;-64
2023/09/20 09:02:15;;;;;;;25.17;22.87;;;25.10;99.90;;;;;;5065480;28;20048;-62
2023/09/20 09:05:03;;;;;;;26.80;24.10;;;25.20;99.90;;;;;;5058052;28;20452;-62
2023/09/20 09:07:29;;;;;;;25.83;23.23;;;25.40;99.90;;;;;;5064792;28;20115;-61
2023/09/20 09:09:55;;;;;;;27.92;25.27;;;24.90;99.90;;;;;;5064627;28;20128;-63
2023/09/20 09:12:21;;;;;;;25.42;21.67;;;24.70;99.90;;;;;;5062270;28;20119;-62
2023/09/20 09:14:49;;;;;;;26.30;23.80;;;24.70;99.90;;;;;;5061840;28;20136;-62
2023/09/20 09:17:16;;;;;;;27.83;25.33;;;24.80;99.90;;;;;;5062792;28;20044;-62
2023/09/20 09:19:42;;;;;;;25.13;23.02;;;24.70;99.90;;;;;;5058156;28;20045;-61
2023/09/20 09:22:09;;;;;;;26.45;24.00;;;24.70;99.90;;;;;;5060411;28;20074;-62
2023/09/20 09:24:48;;;;;;;27.70;25.30;;;24.60;99.90;;;;;;5059853;28;20087;-61
2023/09/20 09:27:18;;;;;;;26.83;24.42;;;24.20;99.90;;;;;;5065189;28;20048;-63
2023/09/20 09:29:44;;;;;;;26.98;24.50;;;24.00;99.90;;;;;;5065042;28;20044;-63
2023/09/20 09:32:10;;;;;;;27.65;25.05;;;23.90;99.90;;;;;;5066214;28;20036;-61
2023/09/20 09:34:38;;;;;;;25.23;23.02;;;24.10;99.90;;;;;;5057186;28;20044;-63
2023/09/20 09:37:04;;;;;;;26.40;24.10;;;23.90;99.90;;;;;;5065956;28;20453;-61
2023/09/20 09:39:30;;;;;;;30.48;25.45;;;24.00;99.90;;;;;;5061852;28;20068;-61
2023/09/20 09:41:57;;;;;;;29.25;26.40;;;23.90;99.90;;;;;;5063866;28;20086;-63
2023/09/20 09:44:22;;;;;;;27.35;24.90;;;23.80;99.90;;;;;;5065692;28;20059;-65
2023/09/20 09:46:48;;;;;;;29.33;26.42;;;24.10;99.90;;;;;;5065218;28;20548;-66
2023/09/20 09:49:18;;;;;;;28.52;25.65;;;23.70;99.90;;;;;;5064731;28;20050;-66
2023/09/20 09:51:51;;;;;;;30.83;27.83;;;23.50;99.90;;;;;;5065308;28;20048;-65
2023/09/20 09:54:18;;;;;;;28.63;26.02;;;23.50;99.90;;;;;;5065980;28;20142;-65
2023/09/20 09:56:44;;;;;;;27.25;24.75;;;23.60;99.90;;;;;;5060128;28;20076;-65
2023/09/20 09:59:10;;;;;;;29.02;26.42;;;23.10;99.90;;;;;;5060021;28;20462;-66
2023/09/20 10:01:40;;;;;;;29.10;26.27;;;23.40;99.90;;;;;;5061889;28;20059;-66
2023/09/20 10:04:17;;;;;;;31.50;28.50;;;23.40;99.90;;;;;;5061137;28;20127;-65
2023/09/20 10:06:53;;;;;;;27.20;24.90;;;23.10;99.90;;;;;;5064543;28;20037;-65
2023/09/20 10:09:23;;;;;;;;;;;23.20;99.90;;;;;;5059007;28;20047;-65
2023/09/20 10:11:50;;;;;;;30.83;27.75;;;23.40;99.90;;;;;;5059532;28;19928;-66
2023/09/20 10:14:18;;;;;;;28.83;26.33;;;23.40;99.90;;;;;;5061440;28;20696;-66
2023/09/20 10:16:44;;;;;;;27.50;24.90;;;23.50;99.90;;;;;;5062221;28;20167;-65
2023/09/20 10:19:13;;;;;;;25.85;23.67;;;23.40;99.90;;;;;;5061270;28;20058;-65
2023/09/20 10:21:40;;;;;;;27.42;24.88;;;23.30;99.90;;;;;;5056772;28;20068;-65
2023/09/20 10:24:14;;;;;;;28.80;26.23;;;23.40;99.90;;;;;;5060182;28;20120;-66
2023/09/20 10:26:40;;;;;;;31.35;28.13;;;23.40;99.90;;;;;;5060834;28;20036;-65
2023/09/20 10:29:31;;;;;;;29.40;26.75;;;23.30;99.90;;;;;;5065928;28;20044;-64
2023/09/20 10:32:13;;;;;;;28.88;26.38;;;23.60;99.90;;;;;;5062735;28;20049;-65
2023/09/20 10:34:38;;;;;;;29.58;26.63;;;23.40;99.90;;;;;;5054740;28;20049;-65
2023/09/20 10:37:11;;;;;;;29.50;26.95;;;24.10;99.90;;;;;;5057075;28;20533;-67
2023/09/20 10:39:38;;;;;;;28.45;25.88;;;23.60;99.90;;;;;;5061456;28;20071;-65
2023/09/20 10:42:12;;;;;;;30.77;27.92;;;23.70;99.90;;;;;;5059007;28;20036;-65
2023/09/20 10:44:41;;;;;;;28.33;25.77;;;23.60;99.90;;;;;;5050362;28;20052;-65
2023/09/20 10:47:13;;;;;;;27.50;25.13;;;23.10;99.90;;;;;;5053395;28;20476;-65
2023/09/20 10:49:47;;;;;;;28.55;25.90;;;23.20;99.90;;;;;;5054089;28;20060;-66
2023/09/20 10:52:33;;;;;;;28.90;26.25;;;23.00;99.90;;;;;;5061076;28;20051;-66
2023/09/20 10:55:22;;;;;;;30.00;27.30;;;23.20;99.90;;;;;;5043683;28;20056;-62
2023/09/20 10:57:49;;;;;;;29.58;26.88;;;23.10;99.90;;;;;;5060043;28;20123;-62
2023/09/20 11:00:21;;;;;;;29.77;27.25;;;22.90;99.90;;;;;;5054058;28;21213;-62
2023/09/20 11:02:52;;;;;;;29.10;26.60;;;22.90;99.90;;;;;;5058492;28;20044;-63
2023/09/20 11:05:18;;;;;;;30.63;27.75;;;23.10;99.90;;;;;;5056639;28;20509;-63
2023/09/20 11:07:43;;;;;;;32.25;29.15;;;23.10;99.90;;;;;;5055717;28;20051;-63
2023/09/20 11:10:13;;;;;;;29.67;27.15;;;23.10;99.90;;;;;;5052055;28;20047;-63
2023/09/20 11:12:45;;;;;;;31.98;28.92;;;23.10;99.90;;;;;;5056984;28;20054;-63
2023/09/20 11:15:13;;;;;;;36.25;29.55;;;23.40;99.90;;;;;;5062796;28;20050;-62
2023/09/20 11:17:38;;;;;;;29.05;26.42;;;23.40;99.90;;;;;;5060346;28;20076;-63
2023/09/20 11:20:06;;;;;;;30.50;27.42;;;23.40;99.90;;;;;;5062625;28;20151;-63
2023/09/20 11:22:32;;;;;;;28.52;26.02;;;23.30;99.90;;;;;;5061991;28;20711;-62
2023/09/20 11:24:57;;;;;;;31.02;28.10;;;23.40;99.90;;;;;;5059124;28;20837;-62
2023/09/20 11:27:24;;;;;;;29.75;27.08;;;23.40;99.90;;;;;;5061251;28;20147;-62
2023/09/20 11:29:50;;;;;;;32.90;29.70;;;23.10;99.90;;;;;;5062605;28;20040;-62
2023/09/20 11:32:21;;;;;;;32.00;28.85;;;23.10;99.90;;;;;;5067462;28;20156;-63
2023/09/20 11:34:49;;;;;;;32.92;29.65;;;23.40;99.90;;;;;;5067527;28;20106;-62
2023/09/20 11:37:23;;;;;;;31.35;28.20;;;23.30;99.90;;;;;;5067232;28;20396;-63
2023/09/20 11:39:51;;;;;;;31.73;28.92;;;23.40;99.90;;;;;;5062462;28;20040;-62
2023/09/20 11:42:29;;;;;;;32.88;29.77;;;23.40;99.90;;;;;;5059489;28;20056;-63
2023/09/20 11:45:01;;;;;;;30.05;26.92;;;23.60;99.90;;;;;;5068641;28;20048;-62
2023/09/20 11:47:31;;;;;;;31.25;28.17;;;23.70;99.90;;;;;;5059379;28;20056;-63
2023/09/20 11:49:57;;;;;;;29.85;27.17;;;23.50;99.90;;;;;;5062130;28;20455;-62
2023/09/20 11:52:23;;;;;;;30.52;27.83;;;23.20;99.90;;;;;;5058037;28;20037;-63
2023/09/20 11:54:48;;;;;;;30.60;27.58;;;23.70;99.90;;;;;;5064754;28;20048;-63
2023/09/20 11:57:17;;;;;;;27.77;25.42;;;23.50;99.90;;;;;;5057757;28;20036;-62
2023/09/20 11:59:44;;;;;;;28.38;25.77;;;23.40;99.90;;;;;;5056355;28;20048;-63
2023/09/20 12:02:12;;;;;;;29.45;26.73;;;23.30;99.90;;;;;;5061571;28;20060;-62
2023/09/20 12:04:38;;;;;;;31.17;28.20;;;23.30;99.90;;;;;;5060906;28;20214;-63
2023/09/20 12:07:07;;;;;;;29.92;27.17;;;23.40;99.90;;;;;;5064677;28;20048;-62
2023/09/20 12:09:33;;;;;;;30.83;27.77;;;23.70;99.90;;;;;;5060820;28;20048;-63
2023/09/20 12:11:58;;;;;;;32.60;29.45;;;23.40;99.90;;;;;;5067729;28;20456;-62
2023/09/20 12:14:24;;;;;;;30.80;27.73;;;23.10;99.90;;;;;;5057354;28;20041;-63
2023/09/20 12:16:50;;;;;;;32.78;29.33;;;23.40;99.90;;;;;;5064201;28;20487;-63
2023/09/20 12:19:16;;;;;;;31.73;28.67;;;23.30;99.90;;;;;;5057466;28;20562;-62
2023/09/20 12:21:44;;;;;;;29.95;27.35;;;23.40;99.90;;;;;;5060654;28;20045;-62
2023/09/20 12:24:11;;;;;;;31.63;28.77;;;23.30;99.90;;;;;;5053693;28;20053;-63
2023/09/20 12:26:37;;;;;;;30.88;28.17;;;23.10;99.90;;;;;;5068225;28;20094;-63
2023/09/20 12:29:03;;;;;;;33.35;29.98;;;23.30;99.90;;;;;;5062065;28;20044;-62
2023/09/20 12:31:28;;;;;;;30.90;28.00;;;23.30;99.90;;;;;;5064039;28;20064;-62
2023/09/20 12:33:54;;;;;;;31.25;28.35;;;23.10;99.90;;;;;;5066876;28;20071;-62
2023/09/20 12:36:22;;;;;;;29.98;27.27;;;23.10;99.90;;;;;;5059179;28;20102;-62
2023/09/20 12:38:47;;;;;;;32.20;29.17;;;23.20;99.90;;;;;;5057963;28;20056;-63
2023/09/20 12:41:13;;;;;;;33.13;29.65;;;23.10;99.90;;;;;;5062204;28;20036;-63
2023/09/20 12:43:39;;;;;;;31.42;28.48;;;23.20;99.90;;;;;;5053345;28;20048;-63
2023/09/20 12:46:05;;;;;;;32.35;29.40;;;23.30;99.90;;;;;;5060479;28;20454;-64
2023/09/20 12:48:32;;;;;;;31.45;28.50;;;23.60;99.90;;;;;;5056054;28;20596;-63
2023/09/20 12:50:58;;;;;;;31.50;28.30;;;23.10;99.90;;;;;;5064727;28;20045;-62
2023/09/20 12:53:24;;;;;;;31.40;28.60;;;23.00;99.90;;;;;;5061354;28;20124;-62
2023/09/20 12:55:50;;;;;;;32.70;29.50;;;23.20;99.90;;;;;;5063073;28;20467;-63
2023/09/20 12:58:16;;;;;;;30.05;27.25;;;23.80;99.90;;;;;;5061879;28;20127;-62
2023/09/20 13:00:42;;;;;;;30.27;27.48;;;23.60;99.90;;;;;;5058746;28;20123;-63
2023/09/20 13:03:08;;;;;;;32.72;29.40;;;23.20;99.90;;;;;;5062630;28;20044;-63
2023/09/20 13:05:37;;;;;;;30.52;27.63;;;23.30;99.90;;;;;;5042021;28;20130;-63
2023/09/20 13:08:04;;;;;;;29.75;27.00;;;23.60;99.90;;;;;;5065506;28;20474;-63
2023/09/20 13:10:32;;;;;;;29.00;26.30;;;23.40;99.90;;;;;;5064703;28;20047;-62
2023/09/20 13:12:57;;;;;;;29.23;26.27;;;23.40;99.90;;;;;;5064768;28;20048;-62
2023/09/20 13:15:23;;;;;;;27.33;25.00;;;23.70;99.90;;;;;;5062545;28;20032;-70
2023/09/20 13:17:51;;;;;;;28.48;25.98;;;23.70;99.90;;;;;;5063220;28;20481;-65